Time;durP1;ratioP1;P1;durP2;ratioP2;P2;SDS_P1;SDS_P2;PMS_P1;PMS_P2;Temp;Humidity;BMP_temperature;BMP_pressure;BME280_temperature;BME280_humidity;BME280_pressure;Samples;Min_cycle;Max_cycle;Signal;HPM_P1;HPM_P2
2023/03/05 00:00:37;;;;;;;;;;;0.68;4.28;;;;;;2676196;76;20336;-93
2023/03/05 00:04:10;;;;;;;;;;;0.65;4.21;;;;;;2676324;76;20364;-93
2023/03/05 00:07:35;;;;;;;;;;;0.64;5.07;;;;;;2677248;76;20336;-94
2023/03/05 00:11:03;;;;;;;;;;;0.74;5.05;;;;;;2683949;76;20332;-93
2023/03/05 00:14:37;;;;;;;;;;;0.69;4.82;;;;;;2681898;76;20317;-94
2023/03/05 00:18:07;;;;;;;;;;;0.67;4.70;;;;;;2677111;76;20377;-94
2023/03/05 00:21:37;;;;;;;;;;;0.61;4.76;;;;;;2676943;76;20333;-93
2023/03/05 00:25:10;;;;;;;;;;;0.60;4.76;;;;;;2677209;76;20818;-93
2023/03/05 00:28:42;;;;;;;;;;;0.59;4.95;;;;;;2676245;76;20835;-94
2023/03/05 00:32:11;;;;;;;;;;;0.58;5.09;;;;;;2675571;76;20326;-93
2023/03/05 00:35:39;;;;;;;;;;;0.53;5.11;;;;;;2674268;76;20336;-93
2023/03/05 00:39:07;;;;;;;;;;;0.57;5.29;;;;;;2675761;76;20459;-93
2023/03/05 00:42:37;;;;;;;;;;;0.71;5.60;;;;;;2676492;76;20327;-93
2023/03/05 00:46:05;;;;;;;;;;;0.81;5.86;;;;;;2676658;76;20380;-93
2023/03/05 00:49:33;;;;;;;;;;;0.88;5.79;;;;;;2675518;76;20330;-93
2023/03/05 00:53:01;;;;;;;;;;;0.99;6.03;;;;;;2675674;76;20360;-93
2023/03/05 00:56:29;;;;;;;;;;;0.94;5.87;;;;;;2675600;76;20373;-93
2023/03/05 00:59:57;;;;;;;;;;;0.98;5.92;;;;;;2675501;76;20347;-93
2023/03/05 01:03:26;;;;;;;;;;;0.99;5.99;;;;;;2674510;76;20317;-93
2023/03/05 01:06:54;;;;;;;;;;;1.11;6.27;;;;;;2675175;76;20372;-93
2023/03/05 01:10:30;;;;;;;;;;;1.21;6.25;;;;;;2675539;76;20757;-92
2023/03/05 01:13:55;;;;;;;;;;;1.29;6.18;;;;;;2675119;76;20344;-92
2023/03/05 01:17:23;;;;;;;;;;;1.22;5.96;;;;;;2675237;76;20332;-94
2023/03/05 01:20:51;;;;;;;;;;;1.26;6.08;;;;;;2677186;76;20329;-93
2023/03/05 01:24:19;;;;;;;;;;;1.22;6.13;;;;;;2676049;76;20354;-93
2023/03/05 01:27:47;;;;;;;;;;;1.21;5.99;;;;;;2675179;76;20334;-93
2023/03/05 01:31:15;;;;;;;;;;;1.35;5.98;;;;;;2675801;76;20791;-93
2023/03/05 01:34:43;;;;;;;;;;;1.40;6.05;;;;;;2674914;76;20768;-93
2023/03/05 01:38:14;;;;;;;;;;;1.45;5.87;;;;;;2674709;76;20324;-93
2023/03/05 01:41:42;;;;;;;;;;;1.33;5.86;;;;;;2674820;76;20360;-93
2023/03/05 01:45:10;;;;;;;;;;;1.22;6.07;;;;;;2674933;76;20384;-93
2023/03/05 01:48:38;;;;;;;;;;;1.43;6.12;;;;;;2674653;76;20344;-93
2023/03/05 01:52:06;;;;;;;;;;;1.45;5.92;;;;;;2673766;76;20348;-93
2023/03/05 01:55:36;;;;;;;;;;;1.46;5.85;;;;;;2675234;76;20340;-92
2023/03/05 01:59:04;;;;;;;;;;;1.53;5.84;;;;;;2674965;76;20369;-92
2023/03/05 02:02:32;;;;;;;;;;;1.55;5.76;;;;;;2673278;76;20342;-88
2023/03/05 02:06:00;;;;;;;;;;;1.49;5.66;;;;;;2673986;76;20341;-88
2023/03/05 02:09:30;;;;;;;;;;;1.49;5.82;;;;;;2673200;76;20327;-88
2023/03/05 02:12:58;;;;;;;;;;;1.61;5.89;;;;;;2673167;76;20342;-88
2023/03/05 02:16:27;;;;;;;;;;;1.56;5.86;;;;;;2672873;76;20338;-88
2023/03/05 02:19:56;;;;;;;;;;;1.61;5.86;;;;;;2671863;76;20311;-88
2023/03/05 02:23:24;;;;;;;;;;;1.55;5.86;;;;;;2672815;76;20322;-88
2023/03/05 02:26:52;;;;;;;;;;;1.60;6.00;;;;;;2672562;76;20353;-88
2023/03/05 02:30:20;;;;;;;;;;;1.62;5.99;;;;;;2672662;76;20318;-87
2023/03/05 02:33:48;;;;;;;;;;;1.61;5.98;;;;;;2673201;76;20335;-88
2023/03/05 02:37:16;;;;;;;;;;;1.53;5.99;;;;;;2673413;76;20788;-88
2023/03/05 02:40:44;;;;;;;;;;;1.56;6.20;;;;;;2671746;76;20763;-88
2023/03/05 02:44:12;;;;;;;;;;;1.62;6.12;;;;;;2673378;76;20769;-88
2023/03/05 02:47:40;;;;;;;;;;;1.61;6.18;;;;;;2672630;76;20628;-88
2023/03/05 02:51:08;;;;;;;;;;;1.66;6.13;;;;;;2670572;76;20326;-88
2023/03/05 02:54:36;;;;;;;;;;;1.70;6.12;;;;;;2672729;76;20318;-88
2023/03/05 02:58:05;;;;;;;;;;;1.72;6.20;;;;;;2672721;76;20314;-87
2023/03/05 03:01:33;;;;;;;;;;;1.76;6.18;;;;;;2672390;76;20330;-88
2023/03/05 03:05:01;;;;;;;;;;;1.80;6.18;;;;;;2671260;76;20358;-88
2023/03/05 03:08:29;;;;;;;;;;;1.86;6.21;;;;;;2672931;76;20335;-88
2023/03/05 03:11:57;;;;;;;;;;;1.85;6.20;;;;;;2671780;76;20372;-88
2023/03/05 03:15:25;;;;;;;;;;;1.86;6.27;;;;;;2672150;76;20326;-88
2023/03/05 03:18:53;;;;;;;;;;;1.90;6.31;;;;;;2671097;76;20310;-89
2023/03/05 03:22:21;;;;;;;;;;;1.78;6.21;;;;;;2672676;76;20324;-88
2023/03/05 03:25:49;;;;;;;;;;;1.88;6.44;;;;;;2672293;76;20322;-89
2023/03/05 03:29:22;;;;;;;;;;;1.94;6.51;;;;;;2672370;76;20315;-88
2023/03/05 03:32:47;;;;;;;;;;;1.90;6.40;;;;;;2671783;76;20367;-88
2023/03/05 03:36:15;;;;;;;;;;;1.93;6.52;;;;;;2672681;76;20365;-88
2023/03/05 03:39:43;;;;;;;;;;;1.98;6.59;;;;;;2672428;76;20354;-88
2023/03/05 03:43:11;;;;;;;;;;;2.03;6.52;;;;;;2673249;76;20337;-88
2023/03/05 03:46:40;;;;;;;;;;;2.09;6.52;;;;;;2672796;76;20660;-89
2023/03/05 03:50:08;;;;;;;;;;;2.10;6.54;;;;;;2672171;76;20337;-88
2023/03/05 03:53:36;;;;;;;;;;;2.06;6.50;;;;;;2672182;76;20314;-88
2023/03/05 03:57:04;;;;;;;;;;;2.14;6.58;;;;;;2672851;76;20318;-88
2023/03/05 04:00:32;;;;;;;;;;;2.06;6.53;;;;;;2672625;76;20376;-88
2023/03/05 04:04:00;;;;;;;;;;;2.09;6.67;;;;;;2673211;76;20338;-88
2023/03/05 04:07:28;;;;;;;;;;;2.12;6.70;;;;;;2672951;76;20311;-88
2023/03/05 04:10:56;;;;;;;;;;;2.15;6.70;;;;;;2672930;76;20349;-87
2023/03/05 04:14:25;;;;;;;;;;;2.13;6.67;;;;;;2672236;76;20370;-87
2023/03/05 04:17:53;;;;;;;;;;;2.07;6.76;;;;;;2672839;76;20318;-88
2023/03/05 04:21:21;;;;;;;;;;;2.01;6.90;;;;;;2672552;76;20334;-88
2023/03/05 04:24:49;;;;;;;;;;;1.99;7.02;;;;;;2673360;76;20335;-88
2023/03/05 04:28:17;;;;;;;;;;;1.96;7.19;;;;;;2671966;76;20339;-88
2023/03/05 04:31:45;;;;;;;;;;;1.87;7.37;;;;;;2672982;76;20406;-87
2023/03/05 04:35:14;;;;;;;;;;;1.90;7.58;;;;;;2672271;76;20333;-88
2023/03/05 04:38:42;;;;;;;;;;;1.86;7.97;;;;;;2672470;76;20341;-87
2023/03/05 04:42:10;;;;;;;;;;;1.84;8.14;;;;;;2672358;76;20797;-88
2023/03/05 04:45:38;;;;;;;;;;;1.84;8.27;;;;;;2672411;76;20331;-86
2023/03/05 04:49:06;;;;;;;;;;;1.82;8.44;;;;;;2673018;76;20312;-87
2023/03/05 04:52:34;;;;;;;;;;;1.88;8.62;;;;;;2673401;76;20314;-88
2023/03/05 04:56:02;;;;;;;;;;;1.94;8.56;;;;;;2673119;76;20377;-87
2023/03/05 04:59:30;;;;;;;;;;;1.97;8.63;;;;;;2673249;76;20321;-88
2023/03/05 05:02:58;;;;;;;;;;;2.01;8.62;;;;;;2673099;76;20322;-88
2023/03/05 05:06:26;;;;;;;;;;;2.06;8.58;;;;;;2673730;76;20343;-88
2023/03/05 05:09:54;;;;;;;;;;;2.08;8.63;;;;;;2673244;76;20325;-88
2023/03/05 05:13:22;;;;;;;;;;;1.98;8.91;;;;;;2673424;76;20380;-88
2023/03/05 05:16:50;;;;;;;;;;;2.06;8.95;;;;;;2672991;76;20331;-88
2023/03/05 05:20:19;;;;;;;;;;;2.03;8.86;;;;;;2673238;76;20334;-88
2023/03/05 05:23:52;;;;;;;;;;;2.08;8.94;;;;;;2672733;76;20334;-88
2023/03/05 05:27:17;;;;;;;;;;;2.12;8.83;;;;;;2672884;76;20346;-88
2023/03/05 05:30:45;;;;;;;;;;;2.08;8.72;;;;;;2673238;76;20314;-88
2023/03/05 05:34:13;;;;;;;;;;;2.11;8.75;;;;;;2673132;76;20353;-87
2023/03/05 05:37:41;;;;;;;;;;;2.14;8.73;;;;;;2672845;76;20343;-88
2023/03/05 05:41:09;;;;;;;;;;;2.19;8.73;;;;;;2672914;76;20325;-88
2023/03/05 05:44:37;;;;;;;;;;;2.16;8.75;;;;;;2673596;76;20329;-88
2023/03/05 05:48:05;;;;;;;;;;;2.17;8.73;;;;;;2672569;76;20310;-88
2023/03/05 05:51:33;;;;;;;;;;;2.19;8.79;;;;;;2671847;76;20310;-88
2023/03/05 05:55:01;;;;;;;;;;;2.20;8.81;;;;;;2672736;76;20387;-88
2023/03/05 05:58:29;;;;;;;;;;;2.16;8.72;;;;;;2673371;76;20335;-87
2023/03/05 06:01:58;;;;;;;;;;;2.16;8.82;;;;;;2672525;76;20309;-88
2023/03/05 06:05:26;;;;;;;;;;;2.19;8.80;;;;;;2671831;76;20633;-87
2023/03/05 06:08:54;;;;;;;;;;;2.29;8.78;;;;;;2673040;76;20782;-88
2023/03/05 06:12:22;;;;;;;;;;;2.31;8.70;;;;;;2672819;76;20645;-88
2023/03/05 06:15:50;;;;;;;;;;;2.32;8.64;;;;;;2672745;76;20861;-88
2023/03/05 06:19:18;;;;;;;;;;;2.40;8.63;;;;;;2673092;76;20777;-88
2023/03/05 06:22:46;;;;;;;;;;;2.42;8.58;;;;;;2672985;76;20824;-88
2023/03/05 06:26:14;;;;;;;;;;;2.45;8.53;;;;;;2673632;76;20839;-88
2023/03/05 06:29:42;;;;;;;;;;;2.41;8.40;;;;;;2672489;76;20354;-88
2023/03/05 06:33:10;;;;;;;;;;;2.50;8.42;;;;;;2673284;76;20773;-88
2023/03/05 06:36:39;;;;;;;;;;;2.58;8.42;;;;;;2672626;76;20752;-88
2023/03/05 06:40:07;;;;;;;;;;;2.62;8.35;;;;;;2672581;76;20324;-88
2023/03/05 06:43:37;;;;;;;;;;;2.67;8.33;;;;;;2673309;76;20342;-88
2023/03/05 06:47:05;;;;;;;;;;;2.67;8.27;;;;;;2673582;76;20317;-88
2023/03/05 06:50:33;;;;;;;;;;;2.56;8.23;;;;;;2672414;76;20307;-88
2023/03/05 06:54:01;;;;;;;;;;;2.58;8.31;;;;;;2672939;76;20377;-88
2023/03/05 06:57:29;;;;;;;;;;;2.64;8.28;;;;;;2673527;76;20304;-88
2023/03/05 07:00:57;;;;;;;;;;;2.79;8.32;;;;;;2672864;76;20306;-88
2023/03/05 07:04:25;;;;;;;;;;;2.72;8.06;;;;;;2671599;76;20337;-88
2023/03/05 07:07:53;;;;;;;;;;;2.79;8.12;;;;;;2672482;76;20374;-88
2023/03/05 07:11:21;;;;;;;;;;;2.87;8.03;;;;;;2673603;76;20316;-88
2023/03/05 07:14:50;;;;;;;;;;;2.91;7.96;;;;;;2672957;76;20489;-88
2023/03/05 07:18:18;;;;;;;;;;;2.96;7.75;;;;;;2672964;76;20310;-88
2023/03/05 07:21:46;;;;;;;;;;;3.00;7.57;;;;;;2671990;76;20368;-88
2023/03/05 07:25:20;;;;;;;;;;;3.05;7.53;;;;;;2672484;76;20649;-88
2023/03/05 07:28:44;;;;;;;;;;;3.18;7.57;;;;;;2671904;76;20335;-89
2023/03/05 07:32:12;;;;;;;;;;;3.32;7.55;;;;;;2672994;76;20317;-88
2023/03/05 07:35:40;;;;;;;;;;;3.41;7.40;;;;;;2672762;76;20322;-89
2023/03/05 07:39:11;;;;;;;;;;;3.49;7.46;;;;;;2672211;76;20313;-89
2023/03/05 07:42:39;;;;;;;;;;;3.57;7.42;;;;;;2672762;76;20610;-89
2023/03/05 07:46:07;;;;;;;;;;;3.63;7.42;;;;;;2671382;76;20321;-89
2023/03/05 07:49:35;;;;;;;;;;;3.26;6.64;;;;;;2673138;76;20670;-88
2023/03/05 07:53:04;;;;;;;;;;;3.28;6.88;;;;;;2672551;76;20372;-87
2023/03/05 07:56:34;;;;;;;;;;;3.38;7.08;;;;;;2670585;76;20327;-87
2023/03/05 08:00:03;;;;;;;;;;;3.56;7.10;;;;;;2671874;76;20353;-87
2023/03/05 08:03:31;;;;;;;;;;;3.53;6.69;;;;;;2670983;76;20387;-89
2023/03/05 08:06:59;;;;;;;;;;;3.43;6.38;;;;;;2671325;76;20326;-89
2023/03/05 08:10:27;;;;;;;;;;;3.50;6.51;;;;;;2673504;76;20343;-89
2023/03/05 08:13:58;;;;;;;;;;;3.46;6.57;;;;;;2671640;76;20370;-87
2023/03/05 08:17:25;;;;;;;;;;;3.68;6.63;;;;;;2669954;76;20380;-88
2023/03/05 08:20:53;;;;;;;;;;;3.74;6.21;;;;;;2672993;76;20361;-88
2023/03/05 08:24:28;;;;;;;;;;;3.82;5.99;;;;;;2673113;76;20344;-89
2023/03/05 08:27:51;;;;;;;;;;;3.86;5.97;;;;;;2671788;76;20377;-88
2023/03/05 08:31:20;;;;;;;;;;;4.12;6.17;;;;;;2672538;76;20363;-89
2023/03/05 08:34:48;;;;;;;;;;;4.26;6.02;;;;;;2671784;76;20845;-88
2023/03/05 08:38:16;;;;;;;;;;;4.20;5.70;;;;;;2673615;76;20337;-90
2023/03/05 08:41:44;;;;;;;;;;;4.10;5.46;;;;;;2673728;76;20371;-88
2023/03/05 08:45:12;;;;;;;;;;;4.18;5.59;;;;;;2673810;76;20394;-89
2023/03/05 08:48:43;;;;;;;;;;;4.07;5.44;;;;;;2673082;76;20334;-88
2023/03/05 08:52:11;;;;;;;;;;;4.31;5.55;;;;;;2672378;76;20353;-89
2023/03/05 08:55:40;;;;;;;;;;;4.45;5.31;;;;;;2670656;76;20337;-89
2023/03/05 08:59:08;;;;;;;;;;;4.47;5.15;;;;;;2672964;76;20348;-89
2023/03/05 09:02:36;;;;;;;;;;;4.44;4.98;;;;;;2672370;76;20620;-88
2023/03/05 09:06:04;;;;;;;;;;;4.59;4.93;;;;;;2671923;76;20363;-87
2023/03/05 09:09:32;;;;;;;;;;;4.50;4.58;;;;;;2672078;76;20347;-87
2023/03/05 09:13:02;;;;;;;;;;;4.32;4.45;;;;;;2672605;76;20354;-87
2023/03/05 09:16:30;;;;;;;;;;;4.62;4.94;;;;;;2671182;76;20418;-87
2023/03/05 09:19:58;;;;;;;;;;;4.84;4.68;;;;;;2668712;76;20813;-87
2023/03/05 09:23:26;;;;;;;;;;;4.91;4.51;;;;;;2672265;76;20372;-87
2023/03/05 09:26:54;;;;;;;;;;;4.89;4.04;;;;;;2671005;76;20368;-87
2023/03/05 09:30:23;;;;;;;;;;;4.86;3.76;;;;;;2671577;76;20384;-87
2023/03/05 09:33:51;;;;;;;;;;;4.68;3.98;;;;;;2669928;76;20351;-87
2023/03/05 09:37:19;;;;;;;;;;;4.63;3.99;;;;;;2671290;76;20371;-87
2023/03/05 09:40:47;;;;;;;;;;;4.67;4.02;;;;;;2670020;76;20347;-86
2023/03/05 09:44:15;;;;;;;;;;;4.57;4.31;;;;;;2668277;76;20537;-90
2023/03/05 09:47:43;;;;;;;;;;;4.57;3.91;;;;;;2670854;76;20521;-91
2023/03/05 09:51:11;;;;;;;;;;;4.72;4.09;;;;;;2672557;76;20734;-90
2023/03/05 09:54:41;;;;;;;;;;;4.48;4.54;;;;;;2673283;76;20366;-90
2023/03/05 09:58:12;;;;;;;;;;;4.71;4.84;;;;;;2670447;76;20336;-90
2023/03/05 10:01:41;;;;;;;;;;;4.59;4.72;;;;;;2672836;76;20337;-91
2023/03/05 10:05:14;;;;;;;;;;;4.46;4.85;;;;;;2671623;76;20353;-91
2023/03/05 10:08:41;;;;;;;;;;;4.83;4.89;;;;;;2671658;76;20389;-90
2023/03/05 10:12:11;;;;;;;;;;;5.03;4.49;;;;;;2670706;76;20411;-89
2023/03/05 10:15:39;;;;;;;;;;;5.09;4.01;;;;;;2671631;76;20384;-88
2023/03/05 10:19:07;;;;;;;;;;;5.01;3.83;;;;;;2671450;76;20783;-89
2023/03/05 10:22:35;;;;;;;;;;;4.82;3.87;;;;;;2672887;76;20351;-89
2023/03/05 10:26:04;;;;;;;;;;;4.87;4.21;;;;;;2670855;76;20816;-89
2023/03/05 10:29:34;;;;;;;;;;;5.05;4.42;;;;;;2670945;76;20787;-89
2023/03/05 10:33:02;;;;;;;;;;;5.38;4.02;;;;;;2671417;76;20404;-89
2023/03/05 10:36:30;;;;;;;;;;;5.79;3.81;;;;;;2670694;76;20371;-89
2023/03/05 10:39:58;;;;;;;;;;;5.69;2.77;;;;;;2672126;76;20336;-88
2023/03/05 10:43:28;;;;;;;;;;;5.79;2.97;;;;;;2673291;76;20350;-90
2023/03/05 10:46:56;;;;;;;;;;;5.86;2.71;;;;;;2671630;76;20892;-86
2023/03/05 10:50:24;;;;;;;;;;;5.56;2.09;;;;;;2672014;76;20345;-88
2023/03/05 10:53:52;;;;;;;;;;;5.50;1.97;;;;;;2672655;76;20811;-90
2023/03/05 10:57:21;;;;;;;;;;;5.38;2.32;;;;;;2672748;76;20800;-90
2023/03/05 11:00:49;;;;;;;;;;;5.76;2.35;;;;;;2671845;76;20342;-89
2023/03/05 11:04:17;;;;;;;;;;;5.38;1.96;;;;;;2673358;76;20345;-89
2023/03/05 11:07:45;;;;;;;;;;;5.21;1.99;;;;;;2671483;76;20343;-89
2023/03/05 11:11:14;;;;;;;;;;;5.10;2.58;;;;;;2671979;76;20366;-87
2023/03/05 11:14:42;;;;;;;;;;;5.38;2.80;;;;;;2673110;76;20360;-90
2023/03/05 11:18:10;;;;;;;;;;;5.35;2.60;;;;;;2673561;76;20361;-88
2023/03/05 11:21:38;;;;;;;;;;;5.53;2.62;;;;;;2673217;76;20329;-88
2023/03/05 11:25:06;;;;;;;;;;;5.61;1.94;;;;;;2672280;76;20360;-88
2023/03/05 11:28:34;;;;;;;;;;;5.38;1.93;;;;;;2672601;76;21124;-88
2023/03/05 11:32:02;;;;;;;;;;;5.61;2.24;;;;;;2673254;76;20339;-88
2023/03/05 11:35:30;;;;;;;;;;;5.61;2.03;;;;;;2672794;76;20318;-88
2023/03/05 11:38:58;;;;;;;;;;;6.02;2.19;;;;;;2671925;76;20331;-89
2023/03/05 11:42:27;;;;;;;;;;;5.98;1.53;;;;;;2672723;76;20321;-88
2023/03/05 11:45:55;;;;;;;;;;;5.92;1.50;;;;;;2671582;76;20985;-89
2023/03/05 11:49:23;;;;;;;;;;;5.68;1.32;;;;;;2671817;76;20817;-89
2023/03/05 11:52:51;;;;;;;;;;;5.60;1.70;;;;;;2670230;76;21093;-89
2023/03/05 11:56:19;;;;;;;;;;;5.89;2.21;;;;;;2670780;76;20961;-88
2023/03/05 11:59:47;;;;;;;;;;;6.23;1.98;;;;;;2671258;76;20330;-88
2023/03/05 12:03:16;;;;;;;;;;;5.92;1.21;;;;;;2671586;76;20329;-88
2023/03/05 12:06:44;;;;;;;;;;;5.66;0.95;;;;;;2673055;76;20365;-89
2023/03/05 12:10:12;;;;;;;;;;;5.59;0.98;;;;;;2672058;76;20328;-88
2023/03/05 12:13:40;;;;;;;;;;;5.51;1.16;;;;;;2672177;76;20340;-89
2023/03/05 12:17:09;;;;;;;;;;;5.77;1.07;;;;;;2672560;76;22443;-88
2023/03/05 12:20:37;;;;;;;;;;;5.56;0.73;;;;;;2673077;76;20328;-88
2023/03/05 12:24:05;;;;;;;;;;;5.43;0.81;;;;;;2674041;76;20344;-87
2023/03/05 12:27:33;;;;;;;;;;;5.21;1.28;;;;;;2674389;76;20349;-88
2023/03/05 12:31:02;;;;;;;;;;;5.13;1.49;;;;;;2671635;76;20366;-87
2023/03/05 12:34:30;;;;;;;;;;;5.28;1.51;;;;;;2673762;76;20338;-88
2023/03/05 12:37:58;;;;;;;;;;;5.37;1.72;;;;;;2673074;76;20327;-87
2023/03/05 12:41:26;;;;;;;;;;;5.15;1.54;;;;;;2673268;76;20376;-88
2023/03/05 12:44:56;;;;;;;;;;;5.31;2.00;;;;;;2673789;76;20367;-87
2023/03/05 12:48:24;;;;;;;;;;;5.25;2.44;;;;;;2673962;76;20381;-87
2023/03/05 12:51:52;;;;;;;;;;;5.56;2.31;;;;;;2673974;76;20345;-87
2023/03/05 12:55:20;;;;;;;;;;;5.56;1.64;;;;;;2673383;76;20330;-88
2023/03/05 12:58:49;;;;;;;;;;;5.69;1.23;;;;;;2673139;76;20387;-87
2023/03/05 13:02:17;;;;;;;;;;;5.68;0.84;;;;;;2673582;76;20321;-88
2023/03/05 13:05:45;;;;;;;;;;;5.62;0.74;;;;;;2672708;76;20340;-88
2023/03/05 13:09:13;;;;;;;;;;;5.45;-0.13;;;;;;2672975;76;20413;-87
2023/03/05 13:12:41;;;;;;;;;;;5.33;-1.13;;;;;;2673659;76;20324;-86
2023/03/05 13:16:09;;;;;;;;;;;5.48;-0.59;;;;;;2673211;76;20330;-88
2023/03/05 13:19:37;;;;;;;;;;;5.12;0.28;;;;;;2673642;76;20372;-87
2023/03/05 13:23:10;;;;;;;;;;;5.19;0.93;;;;;;2668364;76;20376;-86
2023/03/05 13:26:35;;;;;;;;;;;5.02;0.97;;;;;;2665202;76;20411;-87
2023/03/05 13:30:03;;;;;;;;;;;5.11;1.22;;;;;;2670207;76;20343;-87
2023/03/05 13:33:31;;;;;;;;;;;5.18;0.78;;;;;;2670210;76;20353;-88
2023/03/05 13:37:01;;;;;;;;;;;5.40;0.53;;;;;;2673259;76;20388;-89
2023/03/05 13:40:30;;;;;;;;;;;5.30;-0.19;;;;;;2671019;76;20328;-90
2023/03/05 13:43:58;;;;;;;;;;;5.02;-0.64;;;;;;2668723;76;20359;-88
2023/03/05 13:47:27;;;;;;;;;;;5.11;-0.60;;;;;;2670573;76;20795;-89
2023/03/05 13:50:58;;;;;;;;;;;5.48;-0.38;;;;;;2668607;76;20480;-87
2023/03/05 13:54:26;;;;;;;;;;;5.24;-0.64;;;;;;2670041;76;20829;-90
2023/03/05 13:57:54;;;;;;;;;;;5.37;0.05;;;;;;2668741;76;20382;-89
2023/03/05 14:01:22;;;;;;;;;;;5.34;-0.67;;;;;;2664829;76;20359;-88
2023/03/05 14:04:50;;;;;;;;;;;5.45;-0.29;;;;;;2664706;76;20973;-89
2023/03/05 14:08:19;;;;;;;;;;;5.24;-0.44;;;;;;2664832;76;20712;-87
2023/03/05 14:11:47;;;;;;;;;;;5.24;-0.48;;;;;;2663525;76;20369;-86
2023/03/05 14:15:25;;;;;;;;;;;5.21;-0.25;;;;;;2664497;76;20335;-84
2023/03/05 14:18:48;;;;;;;;;;;5.25;-0.25;;;;;;2663188;76;20336;-85
2023/03/05 14:22:21;;;;;;;;;;;5.16;0.00;;;;;;2664035;76;20335;-84
2023/03/05 14:25:46;;;;;;;;;;;4.98;0.34;;;;;;2661771;76;20676;-84
2023/03/05 14:29:16;;;;;;;;;;;5.19;0.29;;;;;;2669494;76;20796;-85
2023/03/05 14:32:44;;;;;;;;;;;5.20;0.10;;;;;;2667501;76;20370;-87
2023/03/05 14:36:12;;;;;;;;;;;4.97;0.32;;;;;;2664413;76;20384;-86
2023/03/05 14:39:40;;;;;;;;;;;4.81;0.67;;;;;;2662645;76;20373;-86
2023/03/05 14:43:08;;;;;;;;;;;4.75;0.12;;;;;;2663639;76;20384;-87
2023/03/05 14:46:36;;;;;;;;;;;4.91;-0.02;;;;;;2667368;76;20355;-87
2023/03/05 14:50:05;;;;;;;;;;;4.71;-0.54;;;;;;2666012;76;20978;-86
2023/03/05 14:53:34;;;;;;;;;;;4.88;-0.71;;;;;;2666797;76;21364;-87
2023/03/05 14:57:02;;;;;;;;;;;4.61;-0.66;;;;;;2669866;76;20398;-87
2023/03/05 15:00:35;;;;;;;;;;;4.72;-0.35;;;;;;2667091;76;20376;-85
2023/03/05 15:04:00;;;;;;;;;;;4.78;-0.65;;;;;;2662564;76;20935;-86
2023/03/05 15:07:28;;;;;;;;;;;4.69;-0.72;;;;;;2665167;76;20374;-85
2023/03/05 15:10:56;;;;;;;;;;;4.84;-0.69;;;;;;2665106;76;20335;-86
2023/03/05 15:14:24;;;;;;;;;;;4.77;-1.06;;;;;;2670311;76;20635;-85
2023/03/05 15:17:58;;;;;;;;;;;4.94;-1.22;;;;;;2668613;76;20340;-86
2023/03/05 15:21:22;;;;;;;;;;;4.98;-1.55;;;;;;2670323;76;20659;-86
2023/03/05 15:24:51;;;;;;;;;;;4.80;-1.41;;;;;;2666809;76;20375;-86
2023/03/05 15:28:19;;;;;;;;;;;4.83;-1.51;;;;;;2667487;76;20359;-88
2023/03/05 15:31:47;;;;;;;;;;;4.82;-1.23;;;;;;2670117;76;20347;-88
2023/03/05 15:35:15;;;;;;;;;;;4.78;-1.55;;;;;;2670549;76;20342;-89
2023/03/05 15:38:45;;;;;;;;;;;4.66;-1.67;;;;;;2668252;76;20395;-88
2023/03/05 15:42:13;;;;;;;;;;;4.67;-1.86;;;;;;2668724;76;20354;-89
2023/03/05 15:45:41;;;;;;;;;;;4.56;-2.10;;;;;;2668159;76;20754;-85
2023/03/05 15:49:09;;;;;;;;;;;4.36;-1.99;;;;;;2668024;76;20390;-85
2023/03/05 15:52:37;;;;;;;;;;;4.67;-1.99;;;;;;2669101;76;20421;-86
2023/03/05 15:56:05;;;;;;;;;;;4.56;-2.32;;;;;;2667022;76;20336;-86
2023/03/05 15:59:33;;;;;;;;;;;4.52;-3.00;;;;;;2667185;76;20327;-85
2023/03/05 16:03:02;;;;;;;;;;;4.48;-3.51;;;;;;2669793;76;20362;-86
2023/03/05 16:06:30;;;;;;;;;;;4.37;-3.89;;;;;;2671754;76;20327;-85
2023/03/05 16:09:58;;;;;;;;;;;4.48;-3.77;;;;;;2666959;76;20322;-83
2023/03/05 16:13:28;;;;;;;;;;;4.47;-3.84;;;;;;2667526;76;20323;-83
2023/03/05 16:16:56;;;;;;;;;;;4.39;-3.96;;;;;;2669207;76;20774;-83
2023/03/05 16:20:24;;;;;;;;;;;4.43;-3.82;;;;;;2668714;76;20648;-82
2023/03/05 16:23:52;;;;;;;;;;;4.30;-3.83;;;;;;2668447;76;20331;-83
2023/03/05 16:27:22;;;;;;;;;;;4.26;-3.88;;;;;;2664692;76;20761;-85
2023/03/05 16:30:50;;;;;;;;;;;4.29;-3.86;;;;;;2667579;76;20717;-85
2023/03/05 16:34:18;;;;;;;;;;;4.09;-3.83;;;;;;2669006;76;20323;-85
2023/03/05 16:37:46;;;;;;;;;;;4.22;-3.66;;;;;;2668521;76;20788;-85
2023/03/05 16:41:15;;;;;;;;;;;3.93;-3.99;;;;;;2670499;76;20833;-84
2023/03/05 16:44:43;;;;;;;;;;;3.98;-3.86;;;;;;2668341;76;20342;-83
2023/03/05 16:48:11;;;;;;;;;;;4.04;-3.63;;;;;;2664898;76;20427;-84
2023/03/05 16:51:39;;;;;;;;;;;3.97;-3.62;;;;;;2664141;76;20376;-84
2023/03/05 16:55:07;;;;;;;;;;;4.03;-3.60;;;;;;2667716;76;20344;-84
2023/03/05 16:58:35;;;;;;;;;;;3.97;-3.74;;;;;;2667228;76;20327;-84
2023/03/05 17:02:09;;;;;;;;;;;3.92;-3.58;;;;;;2668008;76;20348;-83
2023/03/05 17:05:34;;;;;;;;;;;3.83;-3.72;;;;;;2668943;76;20357;-83
2023/03/05 17:09:02;;;;;;;;;;;3.79;-3.54;;;;;;2669192;76;20403;-83
2023/03/05 17:12:30;;;;;;;;;;;3.88;-3.58;;;;;;2668271;76;20342;-86
2023/03/05 17:15:58;;;;;;;;;;;3.89;-3.76;;;;;;2670803;76;20704;-86
2023/03/05 17:19:26;;;;;;;;;;;3.79;-3.73;;;;;;2668934;76;20321;-88
2023/03/05 17:22:54;;;;;;;;;;;3.79;-3.70;;;;;;2667609;76;20800;-86
2023/03/05 17:26:22;;;;;;;;;;;3.85;-3.67;;;;;;2668888;76;20417;-85
2023/03/05 17:29:50;;;;;;;;;;;3.72;-3.84;;;;;;2669449;76;20413;-85
2023/03/05 17:33:18;;;;;;;;;;;3.75;-3.68;;;;;;2667642;76;20386;-86
2023/03/05 17:36:49;;;;;;;;;;;3.77;-3.78;;;;;;2668804;76;20334;-86
2023/03/05 17:40:16;;;;;;;;;;;3.76;-4.02;;;;;;2667724;76;20517;-85
2023/03/05 17:43:44;;;;;;;;;;;3.83;-3.96;;;;;;2666005;76;20622;-86
2023/03/05 17:47:13;;;;;;;;;;;3.83;-4.03;;;;;;2666638;76;20333;-86
2023/03/05 17:50:41;;;;;;;;;;;3.89;-3.92;;;;;;2667327;76;20646;-84
2023/03/05 17:54:09;;;;;;;;;;;3.91;-3.90;;;;;;2667433;76;20309;-84
2023/03/05 17:57:40;;;;;;;;;;;3.93;-3.80;;;;;;2668988;76;20423;-87
2023/03/05 18:01:07;;;;;;;;;;;3.91;-3.64;;;;;;2668644;76;20341;-89
2023/03/05 18:04:35;;;;;;;;;;;3.91;-3.53;;;;;;2669275;76;20380;-86
2023/03/05 18:08:03;;;;;;;;;;;3.92;-3.37;;;;;;2669365;76;20363;-90
2023/03/05 18:11:31;;;;;;;;;;;3.92;-3.28;;;;;;2670489;76;20655;-86
2023/03/05 18:14:59;;;;;;;;;;;3.92;-3.15;;;;;;2669070;76;20339;-88
2023/03/05 18:18:27;;;;;;;;;;;3.88;-3.06;;;;;;2671673;76;20329;-87
2023/03/05 18:21:55;;;;;;;;;;;3.89;-2.94;;;;;;2672695;76;20348;-86
2023/03/05 18:25:29;;;;;;;;;;;3.88;-2.80;;;;;;2669554;76;20367;-90
2023/03/05 18:28:53;;;;;;;;;;;3.89;-2.73;;;;;;2671421;76;20347;-87
2023/03/05 18:32:22;;;;;;;;;;;3.88;-2.67;;;;;;2669719;76;20366;-87
2023/03/05 18:35:54;;;;;;;;;;;3.89;-2.60;;;;;;2667193;76;20909;-87
2023/03/05 18:39:22;;;;;;;;;;;3.89;-2.57;;;;;;2670489;76;20340;-87
2023/03/05 18:42:50;;;;;;;;;;;3.88;-2.51;;;;;;2666659;76;20353;-87
2023/03/05 18:46:18;;;;;;;;;;;3.89;-2.47;;;;;;2669257;76;20365;-87
2023/03/05 18:49:46;;;;;;;;;;;3.91;-2.35;;;;;;2670242;76;20317;-89
2023/03/05 18:53:15;;;;;;;;;;;3.90;-2.29;;;;;;2668127;76;20518;-88
2023/03/05 18:56:43;;;;;;;;;;;3.89;-2.25;;;;;;2668071;76;20377;-86
2023/03/05 19:00:11;;;;;;;;;;;3.88;-2.12;;;;;;2669848;76;20400;-86
2023/03/05 19:03:39;;;;;;;;;;;3.90;-2.00;;;;;;2668090;76;20385;-86
2023/03/05 19:07:07;;;;;;;;;;;3.84;-1.99;;;;;;2666976;76;20404;-87
2023/03/05 19:10:36;;;;;;;;;;;3.80;-1.94;;;;;;2666339;76;20338;-89
2023/03/05 19:14:04;;;;;;;;;;;3.78;-1.83;;;;;;2666737;76;20359;-87
2023/03/05 19:17:32;;;;;;;;;;;3.84;-1.71;;;;;;2668514;76;20369;-87
2023/03/05 19:21:00;;;;;;;;;;;3.84;-1.71;;;;;;2669505;76;20348;-87
2023/03/05 19:24:28;;;;;;;;;;;3.84;-1.68;;;;;;2669295;76;20864;-86
2023/03/05 19:27:56;;;;;;;;;;;3.79;-1.67;;;;;;2667781;76;20334;-87
2023/03/05 19:31:24;;;;;;;;;;;3.76;-1.53;;;;;;2667305;76;20406;-87
2023/03/05 19:34:52;;;;;;;;;;;3.80;-1.42;;;;;;2669164;76;20590;-88
2023/03/05 19:38:23;;;;;;;;;;;3.80;-1.41;;;;;;2668231;76;20337;-88
2023/03/05 19:41:51;;;;;;;;;;;3.83;-1.35;;;;;;2664950;76;20345;-89
2023/03/05 19:45:20;;;;;;;;;;;3.80;-1.38;;;;;;2667742;76;20358;-89
2023/03/05 19:48:48;;;;;;;;;;;3.80;-1.29;;;;;;2668878;76;20312;-87
2023/03/05 19:52:18;;;;;;;;;;;3.80;-1.21;;;;;;2667861;76;20325;-89
2023/03/05 19:55:46;;;;;;;;;;;3.76;-1.17;;;;;;2667916;76;20598;-88
2023/03/05 19:59:16;;;;;;;;;;;3.79;-1.08;;;;;;2665662;76;20369;-89
2023/03/05 20:02:44;;;;;;;;;;;3.78;-1.09;;;;;;2665930;76;20311;-89
2023/03/05 20:06:12;;;;;;;;;;;3.76;-1.09;;;;;;2663820;76;20670;-85
2023/03/05 20:09:40;;;;;;;;;;;3.74;-1.03;;;;;;2667770;76;20333;-86
2023/03/05 20:20:37;;;;;;;;;;;3.75;-0.84;;;;;;2670079;76;20344;-92
2023/03/05 20:24:23;;;;;;;;;;;;;;;;;;;;;
2023/03/05 20:27:53;;;;;;;;;;;;;;;;;;;;;
2023/03/05 20:31:26;;;;;;;;;;;3.80;-0.64;;;;;;2669166;76;20357;-91
2023/03/05 20:34:55;;;;;;;;;;;3.70;-0.53;;;;;;2671822;76;20845;-91
2023/03/05 20:38:28;;;;;;;;;;;3.70;-0.48;;;;;;2669268;76;20471;-91
2023/03/05 20:41:59;;;;;;;;;;;3.73;-0.43;;;;;;2671708;76;20801;-91
2023/03/05 20:45:29;;;;;;;;;;;3.77;-0.32;;;;;;2671237;76;20390;-91
2023/03/05 20:48:57;;;;;;;;;;;3.79;-0.30;;;;;;2671077;76;20383;-91
2023/03/05 20:52:26;;;;;;;;;;;3.75;-0.29;;;;;;2670117;76;20331;-89